sensor_id;sensor_type;location;lat;lon;timestamp;temperature;humidity
3528;DHT22;1778;47.966;7.854;2023-09-30T00:01:01;15.90;99.90
3528;DHT22;1778;47.966;7.854;2023-09-30T00:02:03;16.00;99.90
3528;DHT22;1778;47.966;7.854;2023-09-30T00:03:05;16.00;99.90
3528;DHT22;1778;47.966;7.854;2023-09-30T00:04:06;16.00;99.90
3528;DHT22;1778;47.966;7.854;2023-09-30T00:05:09;16.00;99.90
3528;DHT22;1778;47.966;7.854;2023-09-30T00:06:11;15.90;99.90
3528;DHT22;1778;47.966;7.854;2023-09-30T00:07:13;15.90;99.90
3528;DHT22;1778;47.966;7.854;2023-09-30T00:08:14;15.90;99.90
3528;DHT22;1778;47.966;7.854;2023-09-30T00:09:16;15.90;99.90
3528;DHT22;1778;47.966;7.854;2023-09-30T00:10:18;15.80;99.90
3528;DHT22;1778;47.966;7.854;2023-09-30T00:11:20;15.80;99.90
3528;DHT22;1778;47.966;7.854;2023-09-30T00:12:22;15.80;99.90
3528;DHT22;1778;47.966;7.854;2023-09-30T00:13:23;15.80;99.90
3528;DHT22;1778;47.966;7.854;2023-09-30T00:14:25;15.80;99.90
3528;DHT22;1778;47.966;7.854;2023-09-30T00:15:26;15.80;99.90
3528;DHT22;1778;47.966;7.854;2023-09-30T00:16:28;15.80;99.90
3528;DHT22;1778;47.966;7.854;2023-09-30T00:17:30;15.80;99.90
3528;DHT22;1778;47.966;7.854;2023-09-30T00:18:32;15.80;99.90
3528;DHT22;1778;47.966;7.854;2023-09-30T00:19:34;15.80;99.90
3528;DHT22;1778;47.966;7.854;2023-09-30T00:20:35;15.80;99.90
3528;DHT22;1778;47.966;7.854;2023-09-30T00:21:37;15.80;99.90
3528;DHT22;1778;47.966;7.854;2023-09-30T00:22:39;15.80;99.90
3528;DHT22;1778;47.966;7.854;2023-09-30T00:23:41;15.70;99.90
3528;DHT22;1778;47.966;7.854;2023-09-30T00:24:42;15.70;99.90
3528;DHT22;1778;47.966;7.854;2023-09-30T00:25:44;15.70;99.90
3528;DHT22;1778;47.966;7.854;2023-09-30T00:26:46;15.70;99.90
3528;DHT22;1778;47.966;7.854;2023-09-30T00:27:48;15.60;99.90
3528;DHT22;1778;47.966;7.854;2023-09-30T00:28:49;15.60;99.90
3528;DHT22;1778;47.966;7.854;2023-09-30T00:29:51;15.60;99.90
3528;DHT22;1778;47.966;7.854;2023-09-30T00:30:53;15.60;99.90
3528;DHT22;1778;47.966;7.854;2023-09-30T00:31:55;15.50;99.90
3528;DHT22;1778;47.966;7.854;2023-09-30T00:32:57;15.50;99.90
3528;DHT22;1778;47.966;7.854;2023-09-30T00:33:58;15.40;99.90
3528;DHT22;1778;47.966;7.854;2023-09-30T00:35:03;15.50;99.90
3528;DHT22;1778;47.966;7.854;2023-09-30T00:36:09;15.40;99.90
3528;DHT22;1778;47.966;7.854;2023-09-30T00:37:13;15.40;99.90
3528;DHT22;1778;47.966;7.854;2023-09-30T00:38:14;15.40;99.90
3528;DHT22;1778;47.966;7.854;2023-09-30T00:39:16;15.40;99.90
3528;DHT22;1778;47.966;7.854;2023-09-30T00:40:18;15.40;99.90
3528;DHT22;1778;47.966;7.854;2023-09-30T00:41:20;15.40;99.90
3528;DHT22;1778;47.966;7.854;2023-09-30T00:42:21;15.40;99.90
3528;DHT22;1778;47.966;7.854;2023-09-30T00:43:23;15.40;99.90
3528;DHT22;1778;47.966;7.854;2023-09-30T00:44:26;15.30;99.90
3528;DHT22;1778;47.966;7.854;2023-09-30T00:45:29;15.30;99.90
3528;DHT22;1778;47.966;7.854;2023-09-30T00:46:32;15.30;99.90
3528;DHT22;1778;47.966;7.854;2023-09-30T00:47:35;15.30;99.90
3528;DHT22;1778;47.966;7.854;2023-09-30T00:48:38;15.30;99.90
3528;DHT22;1778;47.966;7.854;2023-09-30T00:49:41;15.30;99.90
3528;DHT22;1778;47.966;7.854;2023-09-30T00:50:45;15.20;99.90
3528;DHT22;1778;47.966;7.854;2023-09-30T00:51:47;15.30;99.90
3528;DHT22;1778;47.966;7.854;2023-09-30T00:52:50;15.30;99.90
3528;DHT22;1778;47.966;7.854;2023-09-30T00:53:53;15.20;99.90
3528;DHT22;1778;47.966;7.854;2023-09-30T00:54:56;15.20;99.90
3528;DHT22;1778;47.966;7.854;2023-09-30T00:55:59;15.20;99.90
3528;DHT22;1778;47.966;7.854;2023-09-30T00:57:01;15.20;99.90
3528;DHT22;1778;47.966;7.854;2023-09-30T00:58:03;15.20;99.90
3528;DHT22;1778;47.966;7.854;2023-09-30T00:59:05;15.20;99.90
3528;DHT22;1778;47.966;7.854;2023-09-30T01:00:07;15.20;99.90
3528;DHT22;1778;47.966;7.854;2023-09-30T01:01:14;15.10;99.90
3528;DHT22;1778;47.966;7.854;2023-09-30T01:02:18;15.10;99.90
3528;DHT22;1778;47.966;7.854;2023-09-30T01:03:20;15.00;99.90
3528;DHT22;1778;47.966;7.854;2023-09-30T01:04:22;14.90;99.90
3528;DHT22;1778;47.966;7.854;2023-09-30T01:05:25;15.00;99.90
3528;DHT22;1778;47.966;7.854;2023-09-30T01:06:26;14.90;99.90
3528;DHT22;1778;47.966;7.854;2023-09-30T01:07:28;14.90;99.90
3528;DHT22;1778;47.966;7.854;2023-09-30T01:08:30;14.90;99.90
3528;DHT22;1778;47.966;7.854;2023-09-30T01:09:33;14.80;99.90
3528;DHT22;1778;47.966;7.854;2023-09-30T01:10:35;14.80;99.90
3528;DHT22;1778;47.966;7.854;2023-09-30T01:11:37;14.80;99.90
3528;DHT22;1778;47.966;7.854;2023-09-30T01:12:39;14.80;99.90
3528;DHT22;1778;47.966;7.854;2023-09-30T01:13:40;14.90;99.90
3528;DHT22;1778;47.966;7.854;2023-09-30T01:14:44;14.80;99.90
3528;DHT22;1778;47.966;7.854;2023-09-30T01:15:46;14.80;99.90
3528;DHT22;1778;47.966;7.854;2023-09-30T01:16:48;14.80;99.90
3528;DHT22;1778;47.966;7.854;2023-09-30T01:17:50;14.80;99.90
3528;DHT22;1778;47.966;7.854;2023-09-30T01:18:52;14.80;99.90
3528;DHT22;1778;47.966;7.854;2023-09-30T01:19:57;14.80;99.90
3528;DHT22;1778;47.966;7.854;2023-09-30T01:21:03;14.80;99.90
3528;DHT22;1778;47.966;7.854;2023-09-30T01:22:06;14.80;99.90
3528;DHT22;1778;47.966;7.854;2023-09-30T01:23:11;14.80;99.90
3528;DHT22;1778;47.966;7.854;2023-09-30T01:24:13;14.80;99.90
3528;DHT22;1778;47.966;7.854;2023-09-30T01:25:15;14.80;99.90
3528;DHT22;1778;47.966;7.854;2023-09-30T01:26:17;14.80;99.90
3528;DHT22;1778;47.966;7.854;2023-09-30T01:27:19;14.70;99.90
3528;DHT22;1778;47.966;7.854;2023-09-30T01:28:21;14.70;99.90
3528;DHT22;1778;47.966;7.854;2023-09-30T01:29:23;14.70;99.90
3528;DHT22;1778;47.966;7.854;2023-09-30T01:30:27;14.70;99.90
3528;DHT22;1778;47.966;7.854;2023-09-30T01:31:28;14.70;99.90
3528;DHT22;1778;47.966;7.854;2023-09-30T01:32:30;14.60;99.90
3528;DHT22;1778;47.966;7.854;2023-09-30T01:33:32;14.60;99.90
3528;DHT22;1778;47.966;7.854;2023-09-30T01:34:36;14.60;99.90
3528;DHT22;1778;47.966;7.854;2023-09-30T01:35:38;14.60;99.90
3528;DHT22;1778;47.966;7.854;2023-09-30T01:36:39;14.60;99.90
3528;DHT22;1778;47.966;7.854;2023-09-30T01:37:41;14.60;99.90
3528;DHT22;1778;47.966;7.854;2023-09-30T01:38:43;14.60;99.90
3528;DHT22;1778;47.966;7.854;2023-09-30T01:39:44;14.60;99.90
3528;DHT22;1778;47.966;7.854;2023-09-30T01:40:47;14.60;99.90
3528;DHT22;1778;47.966;7.854;2023-09-30T01:41:49;14.60;99.90
3528;DHT22;1778;47.966;7.854;2023-09-30T01:42:50;14.60;99.90
3528;DHT22;1778;47.966;7.854;2023-09-30T01:43:52;14.60;99.90
3528;DHT22;1778;47.966;7.854;2023-09-30T01:44:54;14.60;99.90
3528;DHT22;1778;47.966;7.854;2023-09-30T01:45:56;14.50;99.90
3528;DHT22;1778;47.966;7.854;2023-09-30T01:46:58;14.50;99.90
3528;DHT22;1778;47.966;7.854;2023-09-30T01:48:00;14.50;99.90
3528;DHT22;1778;47.966;7.854;2023-09-30T01:49:02;14.50;99.90
3528;DHT22;1778;47.966;7.854;2023-09-30T01:50:05;14.50;99.90
3528;DHT22;1778;47.966;7.854;2023-09-30T01:51:07;14.50;99.90
3528;DHT22;1778;47.966;7.854;2023-09-30T01:52:08;14.40;99.90
3528;DHT22;1778;47.966;7.854;2023-09-30T01:53:10;14.50;99.90
3528;DHT22;1778;47.966;7.854;2023-09-30T01:54:12;14.40;99.90
3528;DHT22;1778;47.966;7.854;2023-09-30T01:55:14;14.50;99.90
3528;DHT22;1778;47.966;7.854;2023-09-30T01:56:15;14.50;99.90
3528;DHT22;1778;47.966;7.854;2023-09-30T01:57:17;14.50;99.90
3528;DHT22;1778;47.966;7.854;2023-09-30T01:58:19;14.40;99.90
3528;DHT22;1778;47.966;7.854;2023-09-30T01:59:20;14.40;99.90
3528;DHT22;1778;47.966;7.854;2023-09-30T02:00:22;14.40;99.90
3528;DHT22;1778;47.966;7.854;2023-09-30T02:01:24;14.40;99.90
3528;DHT22;1778;47.966;7.854;2023-09-30T02:02:26;14.40;99.90
3528;DHT22;1778;47.966;7.854;2023-09-30T02:03:28;14.40;99.90
3528;DHT22;1778;47.966;7.854;2023-09-30T02:04:30;14.40;99.90
3528;DHT22;1778;47.966;7.854;2023-09-30T02:05:32;14.40;99.90
3528;DHT22;1778;47.966;7.854;2023-09-30T02:06:34;14.40;99.90
3528;DHT22;1778;47.966;7.854;2023-09-30T02:07:37;14.40;99.90
3528;DHT22;1778;47.966;7.854;2023-09-30T02:08:39;14.40;99.90
3528;DHT22;1778;47.966;7.854;2023-09-30T02:09:40;14.40;99.90
3528;DHT22;1778;47.966;7.854;2023-09-30T02:10:42;14.40;99.90
3528;DHT22;1778;47.966;7.854;2023-09-30T02:11:44;14.40;99.90
3528;DHT22;1778;47.966;7.854;2023-09-30T02:12:46;14.30;99.90
3528;DHT22;1778;47.966;7.854;2023-09-30T02:13:48;14.30;99.90
3528;DHT22;1778;47.966;7.854;2023-09-30T02:14:50;14.30;99.90
3528;DHT22;1778;47.966;7.854;2023-09-30T02:15:52;14.20;99.90
3528;DHT22;1778;47.966;7.854;2023-09-30T02:16:56;14.30;99.90
3528;DHT22;1778;47.966;7.854;2023-09-30T02:17:59;14.20;99.90
3528;DHT22;1778;47.966;7.854;2023-09-30T02:19:02;14.20;99.90
3528;DHT22;1778;47.966;7.854;2023-09-30T02:20:04;14.20;99.90
3528;DHT22;1778;47.966;7.854;2023-09-30T02:21:15;14.20;99.90
3528;DHT22;1778;47.966;7.854;2023-09-30T02:22:17;14.20;99.90
3528;DHT22;1778;47.966;7.854;2023-09-30T02:23:19;14.20;99.90
3528;DHT22;1778;47.966;7.854;2023-09-30T02:24:22;14.20;99.90
3528;DHT22;1778;47.966;7.854;2023-09-30T02:25:24;14.20;99.90
3528;DHT22;1778;47.966;7.854;2023-09-30T02:26:26;14.20;99.90
3528;DHT22;1778;47.966;7.854;2023-09-30T02:27:29;14.10;99.90
3528;DHT22;1778;47.966;7.854;2023-09-30T02:28:31;14.10;99.90
3528;DHT22;1778;47.966;7.854;2023-09-30T02:29:35;14.00;99.90
3528;DHT22;1778;47.966;7.854;2023-09-30T02:30:37;14.00;99.90
3528;DHT22;1778;47.966;7.854;2023-09-30T02:31:38;14.00;99.90
3528;DHT22;1778;47.966;7.854;2023-09-30T02:32:40;14.00;99.90
3528;DHT22;1778;47.966;7.854;2023-09-30T02:33:43;14.00;99.90
3528;DHT22;1778;47.966;7.854;2023-09-30T02:34:45;14.00;99.90
3528;DHT22;1778;47.966;7.854;2023-09-30T02:35:48;14.00;99.90
3528;DHT22;1778;47.966;7.854;2023-09-30T02:36:53;14.00;99.90
3528;DHT22;1778;47.966;7.854;2023-09-30T02:37:56;14.00;99.90
3528;DHT22;1778;47.966;7.854;2023-09-30T02:38:58;14.00;99.90
3528;DHT22;1778;47.966;7.854;2023-09-30T02:40:01;14.00;99.90
3528;DHT22;1778;47.966;7.854;2023-09-30T02:41:05;13.90;99.90
3528;DHT22;1778;47.966;7.854;2023-09-30T02:42:07;14.00;99.90
3528;DHT22;1778;47.966;7.854;2023-09-30T02:43:08;13.90;99.90
3528;DHT22;1778;47.966;7.854;2023-09-30T02:44:10;13.90;99.90
3528;DHT22;1778;47.966;7.854;2023-09-30T02:45:12;13.90;99.90
3528;DHT22;1778;47.966;7.854;2023-09-30T02:46:15;13.80;99.90
3528;DHT22;1778;47.966;7.854;2023-09-30T02:47:16;13.80;99.90
3528;DHT22;1778;47.966;7.854;2023-09-30T02:48:18;13.80;99.90
3528;DHT22;1778;47.966;7.854;2023-09-30T02:49:21;13.80;99.90
3528;DHT22;1778;47.966;7.854;2023-09-30T02:50:23;13.80;99.90
3528;DHT22;1778;47.966;7.854;2023-09-30T02:51:24;13.80;99.90
3528;DHT22;1778;47.966;7.854;2023-09-30T02:52:28;13.80;99.90
3528;DHT22;1778;47.966;7.854;2023-09-30T02:53:30;13.80;99.90
3528;DHT22;1778;47.966;7.854;2023-09-30T02:54:32;13.80;99.90
3528;DHT22;1778;47.966;7.854;2023-09-30T02:55:34;13.80;99.90
3528;DHT22;1778;47.966;7.854;2023-09-30T02:56:36;13.70;99.90
3528;DHT22;1778;47.966;7.854;2023-09-30T02:57:39;13.70;99.90
3528;DHT22;1778;47.966;7.854;2023-09-30T02:58:41;13.80;99.90
3528;DHT22;1778;47.966;7.854;2023-09-30T02:59:42;13.70;99.90
3528;DHT22;1778;47.966;7.854;2023-09-30T03:00:48;13.70;99.90
3528;DHT22;1778;47.966;7.854;2023-09-30T03:01:50;13.80;99.90
3528;DHT22;1778;47.966;7.854;2023-09-30T03:02:53;13.70;99.90
3528;DHT22;1778;47.966;7.854;2023-09-30T03:03:55;13.70;99.90
3528;DHT22;1778;47.966;7.854;2023-09-30T03:04:57;13.80;99.90
3528;DHT22;1778;47.966;7.854;2023-09-30T03:05:59;13.80;99.90
3528;DHT22;1778;47.966;7.854;2023-09-30T03:07:02;13.80;99.90
3528;DHT22;1778;47.966;7.854;2023-09-30T03:08:04;13.70;99.90
3528;DHT22;1778;47.966;7.854;2023-09-30T03:09:06;13.70;99.90
3528;DHT22;1778;47.966;7.854;2023-09-30T03:10:08;13.70;99.90
3528;DHT22;1778;47.966;7.854;2023-09-30T03:11:10;13.60;99.90
3528;DHT22;1778;47.966;7.854;2023-09-30T03:12:12;13.70;99.90
3528;DHT22;1778;47.966;7.854;2023-09-30T03:13:14;13.60;99.90
3528;DHT22;1778;47.966;7.854;2023-09-30T03:14:15;13.60;99.90
3528;DHT22;1778;47.966;7.854;2023-09-30T03:15:17;13.60;99.90
3528;DHT22;1778;47.966;7.854;2023-09-30T03:16:18;13.60;99.90
3528;DHT22;1778;47.966;7.854;2023-09-30T03:17:21;13.60;99.90
3528;DHT22;1778;47.966;7.854;2023-09-30T03:18:23;13.60;99.90
3528;DHT22;1778;47.966;7.854;2023-09-30T03:19:28;13.60;99.90
3528;DHT22;1778;47.966;7.854;2023-09-30T03:20:30;13.60;99.90
3528;DHT22;1778;47.966;7.854;2023-09-30T03:21:32;13.70;99.90
3528;DHT22;1778;47.966;7.854;2023-09-30T03:22:33;13.70;99.90
3528;DHT22;1778;47.966;7.854;2023-09-30T03:23:35;13.70;99.90
3528;DHT22;1778;47.966;7.854;2023-09-30T03:24:38;13.70;99.90
3528;DHT22;1778;47.966;7.854;2023-09-30T03:25:40;13.70;99.90
3528;DHT22;1778;47.966;7.854;2023-09-30T03:26:43;13.70;99.90
3528;DHT22;1778;47.966;7.854;2023-09-30T03:27:45;13.70;99.90
3528;DHT22;1778;47.966;7.854;2023-09-30T03:28:47;13.70;99.90
3528;DHT22;1778;47.966;7.854;2023-09-30T03:29:51;13.70;99.90
3528;DHT22;1778;47.966;7.854;2023-09-30T03:30:53;13.60;99.90
3528;DHT22;1778;47.966;7.854;2023-09-30T03:31:54;13.70;99.90
3528;DHT22;1778;47.966;7.854;2023-09-30T03:32:56;13.70;99.90
3528;DHT22;1778;47.966;7.854;2023-09-30T03:33:58;13.70;99.90
3528;DHT22;1778;47.966;7.854;2023-09-30T03:35:01;13.70;99.90
3528;DHT22;1778;47.966;7.854;2023-09-30T03:36:03;13.70;99.90
3528;DHT22;1778;47.966;7.854;2023-09-30T03:37:05;13.70;99.90
3528;DHT22;1778;47.966;7.854;2023-09-30T03:38:12;13.70;99.90
3528;DHT22;1778;47.966;7.854;2023-09-30T03:39:14;13.70;99.90
3528;DHT22;1778;47.966;7.854;2023-09-30T03:40:17;13.70;99.90
3528;DHT22;1778;47.966;7.854;2023-09-30T03:41:28;13.60;99.90
3528;DHT22;1778;47.966;7.854;2023-09-30T03:42:30;13.60;99.90
3528;DHT22;1778;47.966;7.854;2023-09-30T03:43:32;13.60;99.90
3528;DHT22;1778;47.966;7.854;2023-09-30T03:44:35;13.60;99.90
3528;DHT22;1778;47.966;7.854;2023-09-30T03:45:37;13.60;99.90
3528;DHT22;1778;47.966;7.854;2023-09-30T03:46:40;13.60;99.90
3528;DHT22;1778;47.966;7.854;2023-09-30T03:47:42;13.60;99.90
3528;DHT22;1778;47.966;7.854;2023-09-30T03:48:45;13.60;99.90
3528;DHT22;1778;47.966;7.854;2023-09-30T03:49:46;13.60;99.90
3528;DHT22;1778;47.966;7.854;2023-09-30T03:50:49;13.60;99.90
3528;DHT22;1778;47.966;7.854;2023-09-30T03:51:52;13.60;99.90
3528;DHT22;1778;47.966;7.854;2023-09-30T03:53:01;13.60;99.90
3528;DHT22;1778;47.966;7.854;2023-09-30T03:54:03;13.60;99.90
3528;DHT22;1778;47.966;7.854;2023-09-30T03:55:05;13.60;99.90
3528;DHT22;1778;47.966;7.854;2023-09-30T03:56:07;13.60;99.90
3528;DHT22;1778;47.966;7.854;2023-09-30T03:57:09;13.60;99.90
3528;DHT22;1778;47.966;7.854;2023-09-30T03:58:14;13.60;99.90
3528;DHT22;1778;47.966;7.854;2023-09-30T03:59:16;13.60;99.90
3528;DHT22;1778;47.966;7.854;2023-09-30T04:00:20;13.60;99.90
3528;DHT22;1778;47.966;7.854;2023-09-30T04:01:22;13.60;99.90
3528;DHT22;1778;47.966;7.854;2023-09-30T04:02:25;13.60;99.90
3528;DHT22;1778;47.966;7.854;2023-09-30T04:03:26;13.60;99.90
3528;DHT22;1778;47.966;7.854;2023-09-30T04:04:29;13.50;99.90
3528;DHT22;1778;47.966;7.854;2023-09-30T04:05:31;13.50;99.90
3528;DHT22;1778;47.966;7.854;2023-09-30T04:06:38;13.50;99.90
3528;DHT22;1778;47.966;7.854;2023-09-30T04:07:40;13.40;99.90
3528;DHT22;1778;47.966;7.854;2023-09-30T04:08:43;13.40;99.90
3528;DHT22;1778;47.966;7.854;2023-09-30T04:09:45;13.40;99.90
3528;DHT22;1778;47.966;7.854;2023-09-30T04:10:47;13.40;99.90
3528;DHT22;1778;47.966;7.854;2023-09-30T04:11:48;13.40;99.90
3528;DHT22;1778;47.966;7.854;2023-09-30T04:12:51;13.40;99.90
3528;DHT22;1778;47.966;7.854;2023-09-30T04:13:53;13.40;99.90
3528;DHT22;1778;47.966;7.854;2023-09-30T04:14:57;13.40;99.90
3528;DHT22;1778;47.966;7.854;2023-09-30T04:15:59;13.40;99.90
3528;DHT22;1778;47.966;7.854;2023-09-30T04:17:01;13.40;99.90
3528;DHT22;1778;47.966;7.854;2023-09-30T04:18:04;13.40;99.90
3528;DHT22;1778;47.966;7.854;2023-09-30T04:19:06;13.50;99.90
3528;DHT22;1778;47.966;7.854;2023-09-30T04:20:11;13.50;99.90
3528;DHT22;1778;47.966;7.854;2023-09-30T04:21:17;13.50;99.90
3528;DHT22;1778;47.966;7.854;2023-09-30T04:22:19;13.50;99.90
3528;DHT22;1778;47.966;7.854;2023-09-30T04:23:22;13.50;99.90
3528;DHT22;1778;47.966;7.854;2023-09-30T04:24:24;13.50;99.90
3528;DHT22;1778;47.966;7.854;2023-09-30T04:25:25;13.50;99.90
3528;DHT22;1778;47.966;7.854;2023-09-30T04:26:27;13.50;99.90
3528;DHT22;1778;47.966;7.854;2023-09-30T04:27:29;13.40;99.90
3528;DHT22;1778;47.966;7.854;2023-09-30T04:28:30;13.40;99.90
3528;DHT22;1778;47.966;7.854;2023-09-30T04:29:32;13.40;99.90
3528;DHT22;1778;47.966;7.854;2023-09-30T04:30:35;13.40;99.90
3528;DHT22;1778;47.966;7.854;2023-09-30T04:31:37;13.40;99.90
3528;DHT22;1778;47.966;7.854;2023-09-30T04:32:41;13.40;99.90
3528;DHT22;1778;47.966;7.854;2023-09-30T04:33:42;13.30;99.90
3528;DHT22;1778;47.966;7.854;2023-09-30T04:34:44;13.30;99.90
3528;DHT22;1778;47.966;7.854;2023-09-30T04:35:48;13.30;99.90
3528;DHT22;1778;47.966;7.854;2023-09-30T04:36:50;13.40;99.90
3528;DHT22;1778;47.966;7.854;2023-09-30T04:37:51;13.40;99.90
3528;DHT22;1778;47.966;7.854;2023-09-30T04:38:53;13.30;99.90
3528;DHT22;1778;47.966;7.854;2023-09-30T04:39:55;13.30;99.90
3528;DHT22;1778;47.966;7.854;2023-09-30T04:40:56;13.30;99.90
3528;DHT22;1778;47.966;7.854;2023-09-30T04:41:59;13.40;99.90
3528;DHT22;1778;47.966;7.854;2023-09-30T04:43:02;13.40;99.90
3528;DHT22;1778;47.966;7.854;2023-09-30T04:44:04;13.40;99.90
3528;DHT22;1778;47.966;7.854;2023-09-30T04:45:06;13.40;99.90
3528;DHT22;1778;47.966;7.854;2023-09-30T04:46:09;13.40;99.90
3528;DHT22;1778;47.966;7.854;2023-09-30T04:47:14;13.40;99.90
3528;DHT22;1778;47.966;7.854;2023-09-30T04:48:15;13.40;99.90
3528;DHT22;1778;47.966;7.854;2023-09-30T04:49:17;13.50;99.90
3528;DHT22;1778;47.966;7.854;2023-09-30T04:50:19;13.40;99.90
3528;DHT22;1778;47.966;7.854;2023-09-30T04:51:23;13.50;99.90
3528;DHT22;1778;47.966;7.854;2023-09-30T04:52:27;13.50;99.90
3528;DHT22;1778;47.966;7.854;2023-09-30T04:53:29;13.50;99.90
3528;DHT22;1778;47.966;7.854;2023-09-30T04:54:30;13.50;99.90
3528;DHT22;1778;47.966;7.854;2023-09-30T04:55:32;13.50;99.90
3528;DHT22;1778;47.966;7.854;2023-09-30T04:56:36;13.50;99.90
3528;DHT22;1778;47.966;7.854;2023-09-30T04:57:39;13.50;99.90
3528;DHT22;1778;47.966;7.854;2023-09-30T04:58:41;13.50;99.90
3528;DHT22;1778;47.966;7.854;2023-09-30T04:59:43;13.60;99.90
3528;DHT22;1778;47.966;7.854;2023-09-30T05:00:45;13.70;99.90
3528;DHT22;1778;47.966;7.854;2023-09-30T05:01:48;13.70;99.90
3528;DHT22;1778;47.966;7.854;2023-09-30T05:02:49;13.70;99.90
3528;DHT22;1778;47.966;7.854;2023-09-30T05:03:51;13.70;99.90
3528;DHT22;1778;47.966;7.854;2023-09-30T05:04:53;13.70;99.90
3528;DHT22;1778;47.966;7.854;2023-09-30T05:05:55;13.70;99.90
3528;DHT22;1778;47.966;7.854;2023-09-30T05:06:58;13.80;99.90
3528;DHT22;1778;47.966;7.854;2023-09-30T05:08:00;13.80;99.90
3528;DHT22;1778;47.966;7.854;2023-09-30T05:09:01;13.80;99.90
3528;DHT22;1778;47.966;7.854;2023-09-30T05:10:04;13.80;99.90
3528;DHT22;1778;47.966;7.854;2023-09-30T05:11:11;13.80;99.90
3528;DHT22;1778;47.966;7.854;2023-09-30T05:12:13;13.90;99.90
3528;DHT22;1778;47.966;7.854;2023-09-30T05:13:15;13.80;99.90
3528;DHT22;1778;47.966;7.854;2023-09-30T05:14:17;13.80;99.90
3528;DHT22;1778;47.966;7.854;2023-09-30T05:15:18;13.90;99.90
3528;DHT22;1778;47.966;7.854;2023-09-30T05:16:21;13.90;99.90
3528;DHT22;1778;47.966;7.854;2023-09-30T05:17:23;13.90;99.90
3528;DHT22;1778;47.966;7.854;2023-09-30T05:18:25;13.90;99.90
3528;DHT22;1778;47.966;7.854;2023-09-30T05:19:26;14.00;99.90
3528;DHT22;1778;47.966;7.854;2023-09-30T05:20:28;14.00;99.90
3528;DHT22;1778;47.966;7.854;2023-09-30T05:21:30;14.00;99.90
3528;DHT22;1778;47.966;7.854;2023-09-30T05:22:31;14.00;99.90
3528;DHT22;1778;47.966;7.854;2023-09-30T05:23:33;14.00;99.90
3528;DHT22;1778;47.966;7.854;2023-09-30T05:24:35;14.00;99.90
3528;DHT22;1778;47.966;7.854;2023-09-30T05:25:37;14.00;99.90
3528;DHT22;1778;47.966;7.854;2023-09-30T05:26:39;14.00;99.90
3528;DHT22;1778;47.966;7.854;2023-09-30T05:27:41;14.00;99.90
3528;DHT22;1778;47.966;7.854;2023-09-30T05:28:43;14.00;99.90
3528;DHT22;1778;47.966;7.854;2023-09-30T05:29:45;14.00;99.90
3528;DHT22;1778;47.966;7.854;2023-09-30T05:30:48;14.00;99.90
3528;DHT22;1778;47.966;7.854;2023-09-30T05:31:52;14.10;99.90
3528;DHT22;1778;47.966;7.854;2023-09-30T05:32:54;14.10;99.90
3528;DHT22;1778;47.966;7.854;2023-09-30T05:33:56;14.10;99.90
3528;DHT22;1778;47.966;7.854;2023-09-30T05:34:58;14.20;99.90
3528;DHT22;1778;47.966;7.854;2023-09-30T05:35:59;14.20;99.90
3528;DHT22;1778;47.966;7.854;2023-09-30T05:37:04;14.20;99.90
3528;DHT22;1778;47.966;7.854;2023-09-30T05:38:07;14.20;99.90
3528;DHT22;1778;47.966;7.854;2023-09-30T05:39:09;14.20;99.90
3528;DHT22;1778;47.966;7.854;2023-09-30T05:40:11;14.20;99.90
3528;DHT22;1778;47.966;7.854;2023-09-30T05:41:24;14.20;99.90
3528;DHT22;1778;47.966;7.854;2023-09-30T05:42:26;14.20;99.90
3528;DHT22;1778;47.966;7.854;2023-09-30T05:43:27;14.20;99.90
3528;DHT22;1778;47.966;7.854;2023-09-30T05:44:29;14.20;99.90
3528;DHT22;1778;47.966;7.854;2023-09-30T05:45:32;14.20;99.90
3528;DHT22;1778;47.966;7.854;2023-09-30T05:46:35;14.20;99.90
3528;DHT22;1778;47.966;7.854;2023-09-30T05:47:37;14.30;99.90
3528;DHT22;1778;47.966;7.854;2023-09-30T05:48:39;14.30;99.90
3528;DHT22;1778;47.966;7.854;2023-09-30T05:49:41;14.30;99.90
3528;DHT22;1778;47.966;7.854;2023-09-30T05:50:43;14.30;99.90
3528;DHT22;1778;47.966;7.854;2023-09-30T05:51:45;14.30;99.90
3528;DHT22;1778;47.966;7.854;2023-09-30T05:52:48;14.30;99.90
3528;DHT22;1778;47.966;7.854;2023-09-30T05:53:49;14.20;99.90
3528;DHT22;1778;47.966;7.854;2023-09-30T05:54:51;14.20;99.90
3528;DHT22;1778;47.966;7.854;2023-09-30T05:55:53;14.20;99.90
3528;DHT22;1778;47.966;7.854;2023-09-30T05:56:55;14.20;99.90
3528;DHT22;1778;47.966;7.854;2023-09-30T05:57:57;14.20;99.90
3528;DHT22;1778;47.966;7.854;2023-09-30T05:59:00;14.20;99.90
3528;DHT22;1778;47.966;7.854;2023-09-30T06:00:03;14.20;99.90
3528;DHT22;1778;47.966;7.854;2023-09-30T06:01:28;14.20;99.90
3528;DHT22;1778;47.966;7.854;2023-09-30T06:02:29;14.20;99.90
3528;DHT22;1778;47.966;7.854;2023-09-30T06:03:31;14.20;99.90
3528;DHT22;1778;47.966;7.854;2023-09-30T06:04:34;14.30;99.90
3528;DHT22;1778;47.966;7.854;2023-09-30T06:05:42;14.20;99.90
3528;DHT22;1778;47.966;7.854;2023-09-30T06:06:44;14.30;99.90
3528;DHT22;1778;47.966;7.854;2023-09-30T06:07:46;14.30;99.90
3528;DHT22;1778;47.966;7.854;2023-09-30T06:08:48;14.30;99.90
3528;DHT22;1778;47.966;7.854;2023-09-30T06:09:50;14.30;99.90
3528;DHT22;1778;47.966;7.854;2023-09-30T06:10:51;14.30;99.90
3528;DHT22;1778;47.966;7.854;2023-09-30T06:11:53;14.30;99.90
3528;DHT22;1778;47.966;7.854;2023-09-30T06:12:55;14.30;99.90
3528;DHT22;1778;47.966;7.854;2023-09-30T06:13:58;14.30;99.90
3528;DHT22;1778;47.966;7.854;2023-09-30T06:15:02;14.30;99.90
3528;DHT22;1778;47.966;7.854;2023-09-30T06:16:04;14.30;99.90
3528;DHT22;1778;47.966;7.854;2023-09-30T06:17:08;14.30;99.90
3528;DHT22;1778;47.966;7.854;2023-09-30T06:18:09;14.30;99.90
3528;DHT22;1778;47.966;7.854;2023-09-30T06:19:13;14.30;99.90
3528;DHT22;1778;47.966;7.854;2023-09-30T06:20:15;14.30;99.90
3528;DHT22;1778;47.966;7.854;2023-09-30T06:21:21;14.30;99.90
3528;DHT22;1778;47.966;7.854;2023-09-30T06:22:22;14.30;99.90
3528;DHT22;1778;47.966;7.854;2023-09-30T06:23:25;14.30;99.90
3528;DHT22;1778;47.966;7.854;2023-09-30T06:24:27;14.30;99.90
3528;DHT22;1778;47.966;7.854;2023-09-30T06:25:28;14.30;99.90
3528;DHT22;1778;47.966;7.854;2023-09-30T06:26:32;14.40;99.90
3528;DHT22;1778;47.966;7.854;2023-09-30T06:27:34;14.40;99.90
3528;DHT22;1778;47.966;7.854;2023-09-30T06:28:35;14.40;99.90
3528;DHT22;1778;47.966;7.854;2023-09-30T06:29:42;14.40;99.90
3528;DHT22;1778;47.966;7.854;2023-09-30T06:30:44;14.50;99.90
3528;DHT22;1778;47.966;7.854;2023-09-30T06:31:47;14.40;99.90
3528;DHT22;1778;47.966;7.854;2023-09-30T06:32:49;14.50;99.90
3528;DHT22;1778;47.966;7.854;2023-09-30T06:33:51;14.50;99.90
3528;DHT22;1778;47.966;7.854;2023-09-30T06:34:52;14.50;99.90
3528;DHT22;1778;47.966;7.854;2023-09-30T06:35:54;14.50;99.90
3528;DHT22;1778;47.966;7.854;2023-09-30T06:36:56;14.50;99.90
3528;DHT22;1778;47.966;7.854;2023-09-30T06:37:57;14.50;99.90
3528;DHT22;1778;47.966;7.854;2023-09-30T06:38:59;14.50;99.90
3528;DHT22;1778;47.966;7.854;2023-09-30T06:40:01;14.60;99.90
3528;DHT22;1778;47.966;7.854;2023-09-30T06:41:05;14.60;99.90
3528;DHT22;1778;47.966;7.854;2023-09-30T06:42:07;14.60;99.90
3528;DHT22;1778;47.966;7.854;2023-09-30T06:43:08;14.70;99.90
3528;DHT22;1778;47.966;7.854;2023-09-30T06:44:10;14.70;99.90
3528;DHT22;1778;47.966;7.854;2023-09-30T06:45:11;14.80;99.90
3528;DHT22;1778;47.966;7.854;2023-09-30T06:46:14;14.80;99.90
3528;DHT22;1778;47.966;7.854;2023-09-30T06:47:15;14.80;99.90
3528;DHT22;1778;47.966;7.854;2023-09-30T06:48:17;14.90;99.90